航空気象通報

ウインドサーファーのための航空気象通報による風予報です。

10/15-10/17の航空気象通報

2016年10月15日 22時19分50秒 | TAF

羽田空港
TAF RJTT 151105Z 1512/1618 08008KT 9999 FEW030
BECMG 1513/1515 36010KT
BECMG 1603/1606 08010KT
BECMG 1615/1618 36008KT
日本時間15日21-22時:080度から8ノットの風
22-24時:風が変化
16日00-12時:360度から10ノットの風
12-15時:風が変化
15-24時:080度から10ノットの風
17日00-03時:風が変化
03時:360度から8ノットの風

静岡空港
TAF RJNS 151105Z 1512/1618 35004KT 9999 FEW030
BECMG 1522/1524 07010KT
日本時間15日21時-16日07時:350度から4ノットの風
07-09時:風が変化
09時-17日03時:070度から10ノットの風

福岡空港
TAF RJFF 151106Z 1512/1618 14005KT 9999 -RA FEW015 SCT030
日本時間15日21時-17日03時:140度から5ノットの風

那覇空港
TAF ROAH 151107Z 1512/1618 08007KT 9999 FEW015
BECMG 1517/1519 10004KT
BECMG 1603/1606 05005KT
日本時間15日21時-16日02時:080度から7ノットの風
02-04時:風が変化
04-12時:100度から4ノットの風
12-15時:風が変化
15時-17日03時:050度から5ノットの風

石垣空港
TAF ROIG 151112Z 1512/1618 07010KT 9999 FEW010 BKN020
TEMPO 1516/1518 4000 SHRA FEW008 BKN015 FEW020CB
日本時間15日21時-17日03時:070度から10ノットの風

但し、16日01-03時の間:ときどき

マウイのカフルイ空港
PHOG 151121Z 1512/1612 05011KT P6SM VCSH FEW025 BKN050
FM152000 05020G28KT P6SM FEW025 SCT050
FM160500 05012G20KT P6SM FEW025 SCT050 AMD LTD TO VIS AND WIND TIL 151600
ハワイ時間15日02-10時:050度から11ノットの風

10-19時:050度から20ノット、突風28ノット
19時-16日02時:050度から12ノット、突風20ノット

サイパン空港
TAF PGSN 151120Z 1512/1612 10013KT P6SM VCSH FEW015 SCT030 BKN110
TEMPO 1513/1517 5SM SHRA SCT015 OVC030
FM160100 13011KT P6SM VCSH SCT017 SCT030 BKN120
マリアナ時間15日22時-16日11時:100度から13ノットの風
01-22時:130度から11ノットの風

但し、15日23時-16日03時の間:ときどき

ジャンル:
お天気
コメント   この記事についてブログを書く
この記事をはてなブックマークに追加
« 10/14-10/16の航空気象通報 | トップ | 10/16-10/18の航空気象通報 »
最近の画像もっと見る

コメントを投稿

ブログ作成者から承認されるまでコメントは反映されません。

コメント利用規約に同意の上コメント投稿を行ってください。

数字4桁を入力し、投稿ボタンを押してください。

あわせて読む

トラックバック

この記事のトラックバック  Ping-URL
ブログ作成者から承認されるまでトラックバックは反映されません。
  • 30日以上前の記事に対するトラックバックは受け取らないよう設定されております。
  • 送信元の記事内容が半角英数のみのトラックバックは受け取らないよう設定されております。
  • このブログへのリンクがない記事からのトラックバックは受け取らないよう設定されております。
  • ※ブログ管理者のみ、編集画面で設定の変更が可能です。